sensor_id;sensor_type;location;lat;lon;timestamp;pressure;altitude;pressure_sealevel;temperature;humidity
61039;BME280;46919;45.816;3.104;2024-01-15T00:01:07;97220.16;;;1.12;100.00
61039;BME280;46919;45.816;3.104;2024-01-15T00:03:33;97227.78;;;1.15;100.00
61039;BME280;46919;45.816;3.104;2024-01-15T00:05:58;97230.59;;;1.14;100.00
61039;BME280;46919;45.816;3.104;2024-01-15T00:08:24;97241.06;;;1.15;100.00
61039;BME280;46919;45.816;3.104;2024-01-15T00:10:49;97236.75;;;1.14;100.00
61039;BME280;46919;45.816;3.104;2024-01-15T00:13:14;97242.06;;;1.14;100.00
61039;BME280;46919;45.816;3.104;2024-01-15T00:15:40;97228.97;;;1.13;100.00
61039;BME280;46919;45.816;3.104;2024-01-15T00:18:06;97233.91;;;1.16;100.00
61039;BME280;46919;45.816;3.104;2024-01-15T00:20:31;97219.59;;;1.17;100.00
61039;BME280;46919;45.816;3.104;2024-01-15T00:22:56;97222.81;;;1.12;100.00
61039;BME280;46919;45.816;3.104;2024-01-15T00:25:22;97223.66;;;1.13;100.00
61039;BME280;46919;45.816;3.104;2024-01-15T00:27:48;97209.84;;;1.09;100.00
61039;BME280;46919;45.816;3.104;2024-01-15T00:30:13;97215.19;;;1.09;100.00
61039;BME280;46919;45.816;3.104;2024-01-15T00:32:39;97196.00;;;1.14;100.00
61039;BME280;46919;45.816;3.104;2024-01-15T00:35:04;97199.13;;;1.17;100.00
61039;BME280;46919;45.816;3.104;2024-01-15T00:37:30;97189.31;;;1.18;100.00
61039;BME280;46919;45.816;3.104;2024-01-15T00:39:55;97188.03;;;1.14;100.00
61039;BME280;46919;45.816;3.104;2024-01-15T00:42:21;97182.63;;;1.07;100.00
61039;BME280;46919;45.816;3.104;2024-01-15T00:44:46;97178.47;;;1.04;100.00
61039;BME280;46919;45.816;3.104;2024-01-15T00:47:11;97176.66;;;1.05;100.00
61039;BME280;46919;45.816;3.104;2024-01-15T00:49:37;97179.31;;;1.05;100.00
61039;BME280;46919;45.816;3.104;2024-01-15T00:52:03;97171.97;;;1.07;100.00
61039;BME280;46919;45.816;3.104;2024-01-15T00:54:28;97171.34;;;1.05;100.00
61039;BME280;46919;45.816;3.104;2024-01-15T00:56:54;97168.00;;;1.03;100.00
61039;BME280;46919;45.816;3.104;2024-01-15T00:59:20;97177.84;;;1.02;100.00
61039;BME280;46919;45.816;3.104;2024-01-15T01:01:46;97175.34;;;1.01;100.00
61039;BME280;46919;45.816;3.104;2024-01-15T01:04:11;97171.69;;;1.02;100.00
61039;BME280;46919;45.816;3.104;2024-01-15T01:06:37;97174.34;;;1.02;100.00
61039;BME280;46919;45.816;3.104;2024-01-15T01:09:03;97188.28;;;1.04;100.00
61039;BME280;46919;45.816;3.104;2024-01-15T01:11:28;97170.66;;;1.03;100.00
61039;BME280;46919;45.816;3.104;2024-01-15T01:13:54;97169.22;;;1.00;100.00
61039;BME280;46919;45.816;3.104;2024-01-15T01:16:21;97181.50;;;1.01;100.00
61039;BME280;46919;45.816;3.104;2024-01-15T01:18:47;97163.03;;;1.00;100.00
61039;BME280;46919;45.816;3.104;2024-01-15T01:21:12;97174.34;;;1.02;100.00
61039;BME280;46919;45.816;3.104;2024-01-15T01:23:37;97176.00;;;1.03;100.00
61039;BME280;46919;45.816;3.104;2024-01-15T01:26:03;97168.00;;;1.03;100.00
61039;BME280;46919;45.816;3.104;2024-01-15T01:28:28;97169.84;;;1.02;100.00
61039;BME280;46919;45.816;3.104;2024-01-15T01:30:54;97172.69;;;1.01;100.00
61039;BME280;46919;45.816;3.104;2024-01-15T01:33:19;97176.00;;;1.03;100.00
61039;BME280;46919;45.816;3.104;2024-01-15T01:35:45;97176.00;;;1.03;100.00
61039;BME280;46919;45.816;3.104;2024-01-15T01:38:12;97174.53;;;1.00;100.00
61039;BME280;46919;45.816;3.104;2024-01-15T01:40:37;97179.69;;;1.02;100.00
61039;BME280;46919;45.816;3.104;2024-01-15T01:43:04;97175.63;;;1.06;100.00
61039;BME280;46919;45.816;3.104;2024-01-15T01:45:30;97178.47;;;1.04;100.00
61039;BME280;46919;45.816;3.104;2024-01-15T01:47:56;97185.47;;;1.05;100.00
61039;BME280;46919;45.816;3.104;2024-01-15T01:50:21;97185.91;;;1.09;100.00
61039;BME280;46919;45.816;3.104;2024-01-15T01:52:47;97190.06;;;1.12;100.00
61039;BME280;46919;45.816;3.104;2024-01-15T01:55:13;97194.56;;;1.11;100.00
61039;BME280;46919;45.816;3.104;2024-01-15T01:57:40;97189.25;;;1.11;100.00
61039;BME280;46919;45.816;3.104;2024-01-15T02:00:06;97189.25;;;1.11;100.00
61039;BME280;46919;45.816;3.104;2024-01-15T02:02:32;97188.03;;;1.14;100.00
61039;BME280;46919;45.816;3.104;2024-01-15T02:04:58;97183.53;;;1.14;100.00
61039;BME280;46919;45.816;3.104;2024-01-15T02:07:24;97182.53;;;1.15;100.00
61039;BME280;46919;45.816;3.104;2024-01-15T02:09:49;97180.84;;;1.14;100.00
61039;BME280;46919;45.816;3.104;2024-01-15T02:12:15;97183.72;;;1.13;100.00
61039;BME280;46919;45.816;3.104;2024-01-15T02:14:41;97192.53;;;1.13;100.00
61039;BME280;46919;45.816;3.104;2024-01-15T02:17:06;97193.34;;;1.14;100.00
61039;BME280;46919;45.816;3.104;2024-01-15T02:19:32;97179.22;;;1.13;100.00
61039;BME280;46919;45.816;3.104;2024-01-15T02:21:57;97176.56;;;1.13;100.00
61039;BME280;46919;45.816;3.104;2024-01-15T02:24:23;97174.53;;;1.15;100.00
61039;BME280;46919;45.816;3.104;2024-01-15T02:26:49;97171.25;;;1.13;100.00
61039;BME280;46919;45.816;3.104;2024-01-15T02:29:15;97167.94;;;1.11;100.00
61039;BME280;46919;45.816;3.104;2024-01-15T02:31:40;97171.59;;;1.10;100.00
61039;BME280;46919;45.816;3.104;2024-01-15T02:34:06;97179.59;;;1.10;100.00
61039;BME280;46919;45.816;3.104;2024-01-15T02:36:32;97184.72;;;1.12;100.00
61039;BME280;46919;45.816;3.104;2024-01-15T02:38:57;97176.94;;;1.10;100.00
61039;BME280;46919;45.816;3.104;2024-01-15T02:41:22;97171.78;;;1.08;100.00
61039;BME280;46919;45.816;3.104;2024-01-15T02:43:48;97172.41;;;1.11;100.00
61039;BME280;46919;45.816;3.104;2024-01-15T02:46:13;97171.59;;;1.10;100.00
61039;BME280;46919;45.816;3.104;2024-01-15T02:48:39;97175.09;;;1.11;100.00
61039;BME280;46919;45.816;3.104;2024-01-15T02:51:05;97177.56;;;1.12;100.00
61039;BME280;46919;45.816;3.104;2024-01-15T02:53:30;97177.75;;;1.11;100.00
61039;BME280;46919;45.816;3.104;2024-01-15T02:55:56;97178.78;;;1.10;100.00
61039;BME280;46919;45.816;3.104;2024-01-15T02:58:22;97172.41;;;1.11;100.00
61039;BME280;46919;45.816;3.104;2024-01-15T03:00:47;97164.25;;;1.12;100.00
61039;BME280;46919;45.816;3.104;2024-01-15T03:03:12;97165.09;;;1.13;100.00
61039;BME280;46919;45.816;3.104;2024-01-15T03:05:38;97162.63;;;1.11;100.00
61039;BME280;46919;45.816;3.104;2024-01-15T03:08:03;97160.16;;;1.10;100.00
61039;BME280;46919;45.816;3.104;2024-01-15T03:10:29;97157.31;;;1.11;100.00
61039;BME280;46919;45.816;3.104;2024-01-15T03:12:54;97157.31;;;1.11;100.00
61039;BME280;46919;45.816;3.104;2024-01-15T03:15:20;97156.44;;;1.11;100.00
61039;BME280;46919;45.816;3.104;2024-01-15T03:17:45;97158.94;;;1.12;100.00
61039;BME280;46919;45.816;3.104;2024-01-15T03:20:11;97148.09;;;1.14;100.00
61039;BME280;46919;45.816;3.104;2024-01-15T03:22:36;97157.75;;;1.15;100.00
61039;BME280;46919;45.816;3.104;2024-01-15T03:25:03;97159.56;;;1.14;100.00
61039;BME280;46919;45.816;3.104;2024-01-15T03:27:29;97154.81;;;1.10;100.00
61039;BME280;46919;45.816;3.104;2024-01-15T03:29:54;97146.84;;;1.10;100.00
61039;BME280;46919;45.816;3.104;2024-01-15T03:32:20;97149.94;;;1.13;100.00
61039;BME280;46919;45.816;3.104;2024-01-15T03:34:45;97144.00;;;1.11;100.00
61039;BME280;46919;45.816;3.104;2024-01-15T03:37:12;97130.69;;;1.11;100.00
61039;BME280;46919;45.816;3.104;2024-01-15T03:39:38;97136.00;;;1.11;100.00
61039;BME280;46919;45.816;3.104;2024-01-15T03:42:03;97142.34;;;1.10;100.00
61039;BME280;46919;45.816;3.104;2024-01-15T03:44:29;97124.69;;;1.09;100.00
61039;BME280;46919;45.816;3.104;2024-01-15T03:46:54;97126.53;;;1.08;100.00
61039;BME280;46919;45.816;3.104;2024-01-15T03:49:20;97124.53;;;1.11;100.00
61039;BME280;46919;45.816;3.104;2024-01-15T03:51:45;97123.69;;;1.10;100.00
61039;BME280;46919;45.816;3.104;2024-01-15T03:54:11;97124.06;;;1.07;100.00
61039;BME280;46919;45.816;3.104;2024-01-15T03:56:36;97122.41;;;1.06;100.00
61039;BME280;46919;45.816;3.104;2024-01-15T03:59:02;97116.81;;;1.01;100.00
61039;BME280;46919;45.816;3.104;2024-01-15T04:01:27;97113.34;;;1.00;100.00
61039;BME280;46919;45.816;3.104;2024-01-15T04:03:53;97117.81;;;1.00;100.00
61039;BME280;46919;45.816;3.104;2024-01-15T04:06:18;97111.50;;;1.01;100.00
61039;BME280;46919;45.816;3.104;2024-01-15T04:08:43;97102.50;;;1.02;100.00
61039;BME280;46919;45.816;3.104;2024-01-15T04:11:09;97103.59;;;1.07;100.00
61039;BME280;46919;45.816;3.104;2024-01-15T04:13:34;97109.09;;;1.06;100.00
61039;BME280;46919;45.816;3.104;2024-01-15T04:16:00;97095.34;;;1.02;100.00
61039;BME280;46919;45.816;3.104;2024-01-15T04:18:26;97097.38;;;1.00;100.00
61039;BME280;46919;45.816;3.104;2024-01-15T04:20:51;97098.19;;;1.01;100.00
61039;BME280;46919;45.816;3.104;2024-01-15T04:23:16;97093.31;;;1.04;100.00
61039;BME280;46919;45.816;3.104;2024-01-15T04:25:42;97088.19;;;1.03;100.00
61039;BME280;46919;45.816;3.104;2024-01-15T04:28:10;97086.72;;;1.00;100.00
61039;BME280;46919;45.816;3.104;2024-01-15T04:30:36;97079.56;;;1.01;100.00
61039;BME280;46919;45.816;3.104;2024-01-15T04:33:01;97084.88;;;1.01;100.00
61039;BME280;46919;45.816;3.104;2024-01-15T04:35:27;97089.75;;;0.97;100.00
61039;BME280;46919;45.816;3.104;2024-01-15T04:37:52;97091.56;;;0.97;100.00
61039;BME280;46919;45.816;3.104;2024-01-15T04:40:18;97092.41;;;0.97;100.00
61039;BME280;46919;45.816;3.104;2024-01-15T04:42:43;97077.91;;;1.00;100.00
61039;BME280;46919;45.816;3.104;2024-01-15T04:45:11;97070.94;;;0.99;100.00
61039;BME280;46919;45.816;3.104;2024-01-15T04:47:36;97064.97;;;0.97;100.00
61039;BME280;46919;45.816;3.104;2024-01-15T04:50:03;97069.28;;;0.98;100.00
61039;BME280;46919;45.816;3.104;2024-01-15T04:52:28;97061.50;;;0.96;100.00
61039;BME280;46919;45.816;3.104;2024-01-15T04:54:54;97055.16;;;0.97;100.00
61039;BME280;46919;45.816;3.104;2024-01-15T04:57:19;97043.69;;;0.97;100.00
61039;BME280;46919;45.816;3.104;2024-01-15T04:59:45;97042.41;;;0.93;100.00
61039;BME280;46919;45.816;3.104;2024-01-15T05:02:10;97040.94;;;0.90;100.00
61039;BME280;46919;45.816;3.104;2024-01-15T05:04:35;97050.59;;;0.91;100.00
61039;BME280;46919;45.816;3.104;2024-01-15T05:07:01;97046.06;;;0.92;100.00
61039;BME280;46919;45.816;3.104;2024-01-15T05:09:26;97055.91;;;0.91;100.00
61039;BME280;46919;45.816;3.104;2024-01-15T05:11:52;97056.28;;;0.88;100.00
61039;BME280;46919;45.816;3.104;2024-01-15T05:14:17;97052.50;;;0.82;100.00
61039;BME280;46919;45.816;3.104;2024-01-15T05:16:52;97057.81;;;0.82;100.00
61039;BME280;46919;45.816;3.104;2024-01-15T05:19:18;97059.13;;;0.86;100.00
61039;BME280;46919;45.816;3.104;2024-01-15T05:21:43;97052.13;;;0.85;100.00
61039;BME280;46919;45.816;3.104;2024-01-15T05:24:08;97061.13;;;0.84;100.00
61039;BME280;46919;45.816;3.104;2024-01-15T05:26:34;97063.63;;;0.86;100.00
61039;BME280;46919;45.816;3.104;2024-01-15T05:29:00;97056.63;;;0.85;100.00
61039;BME280;46919;45.816;3.104;2024-01-15T05:31:25;97064.44;;;0.86;100.00
61039;BME280;46919;45.816;3.104;2024-01-15T05:33:50;97066.91;;;0.88;100.00
61039;BME280;46919;45.816;3.104;2024-01-15T05:36:16;97064.06;;;0.89;100.00
61039;BME280;46919;45.816;3.104;2024-01-15T05:38:41;97047.28;;;0.89;100.00
61039;BME280;46919;45.816;3.104;2024-01-15T05:41:07;97051.41;;;0.92;100.00
61039;BME280;46919;45.816;3.104;2024-01-15T05:43:32;97054.91;;;0.92;100.00
61039;BME280;46919;45.816;3.104;2024-01-15T05:45:57;97051.75;;;0.88;100.00
61039;BME280;46919;45.816;3.104;2024-01-15T05:48:23;97055.44;;;0.87;100.00
61039;BME280;46919;45.816;3.104;2024-01-15T05:50:48;97055.63;;;0.86;100.00
61039;BME280;46919;45.816;3.104;2024-01-15T05:53:14;97052.13;;;0.85;100.00
61039;BME280;46919;45.816;3.104;2024-01-15T05:55:40;97046.63;;;0.87;100.00
61039;BME280;46919;45.816;3.104;2024-01-15T05:58:05;97040.31;;;0.88;100.00
61039;BME280;46919;45.816;3.104;2024-01-15T06:00:30;97045.81;;;0.86;100.00
61039;BME280;46919;45.816;3.104;2024-01-15T06:02:58;97025.16;;;0.88;100.00
61039;BME280;46919;45.816;3.104;2024-01-15T06:05:23;97028.47;;;0.90;100.00
61039;BME280;46919;45.816;3.104;2024-01-15T06:07:49;97016.19;;;0.89;100.00
61039;BME280;46919;45.816;3.104;2024-01-15T06:10:14;97002.25;;;0.87;100.00
61039;BME280;46919;45.816;3.104;2024-01-15T06:12:40;97008.75;;;0.85;100.00
61039;BME280;46919;45.816;3.104;2024-01-15T06:15:05;97006.66;;;0.80;100.00
61039;BME280;46919;45.816;3.104;2024-01-15T06:17:31;97007.81;;;0.78;100.00
61039;BME280;46919;45.816;3.104;2024-01-15T06:19:56;97001.88;;;0.76;100.00
61039;BME280;46919;45.816;3.104;2024-01-15T06:22:22;97010.03;;;0.74;100.00
61039;BME280;46919;45.816;3.104;2024-01-15T06:24:48;97004.72;;;0.74;100.00
61039;BME280;46919;45.816;3.104;2024-01-15T06:27:13;97007.00;;;0.77;100.00
61039;BME280;46919;45.816;3.104;2024-01-15T06:29:38;97007.66;;;0.79;100.00
61039;BME280;46919;45.816;3.104;2024-01-15T06:32:04;97000.50;;;0.80;100.00
61039;BME280;46919;45.816;3.104;2024-01-15T06:34:30;96991.69;;;0.79;100.00
61039;BME280;46919;45.816;3.104;2024-01-15T06:36:55;96998.66;;;0.80;100.00
61039;BME280;46919;45.816;3.104;2024-01-15T06:39:21;96999.28;;;0.82;100.00
61039;BME280;46919;45.816;3.104;2024-01-15T06:41:46;96996.81;;;0.81;100.00
61039;BME280;46919;45.816;3.104;2024-01-15T06:44:12;96991.31;;;0.82;100.00
61039;BME280;46919;45.816;3.104;2024-01-15T06:46:44;96994.81;;;0.83;100.00
61039;BME280;46919;45.816;3.104;2024-01-15T06:49:10;96988.66;;;0.82;100.00
61039;BME280;46919;45.816;3.104;2024-01-15T06:51:36;96985.00;;;0.83;100.00
61039;BME280;46919;45.816;3.104;2024-01-15T06:54:01;96986.19;;;0.81;100.00
61039;BME280;46919;45.816;3.104;2024-01-15T06:56:27;96988.66;;;0.82;100.00
61039;BME280;46919;45.816;3.104;2024-01-15T06:58:53;96997.84;;;0.80;100.00
61039;BME280;46919;45.816;3.104;2024-01-15T07:01:18;96991.69;;;0.79;100.00
61039;BME280;46919;45.816;3.104;2024-01-15T07:03:43;97008.50;;;0.80;100.00
61039;BME280;46919;45.816;3.104;2024-01-15T07:06:09;97005.28;;;0.84;100.00
61039;BME280;46919;45.816;3.104;2024-01-15T07:08:35;96994.63;;;0.84;100.00
61039;BME280;46919;45.816;3.104;2024-01-15T07:11:04;97001.97;;;0.82;100.00
61039;BME280;46919;45.816;3.104;2024-01-15T07:13:30;97006.66;;;0.80;100.00
61039;BME280;46919;45.816;3.104;2024-01-15T07:15:55;97007.00;;;0.77;100.00
61039;BME280;46919;45.816;3.104;2024-01-15T07:18:20;97003.16;;;0.80;100.00
61039;BME280;46919;45.816;3.104;2024-01-15T07:20:46;97002.13;;;0.81;100.00
61039;BME280;46919;45.816;3.104;2024-01-15T07:23:11;96999.28;;;0.82;100.00
61039;BME280;46919;45.816;3.104;2024-01-15T07:25:37;97002.63;;;0.84;100.00
61039;BME280;46919;45.816;3.104;2024-01-15T07:28:03;97001.13;;;0.82;100.00
61039;BME280;46919;45.816;3.104;2024-01-15T07:30:29;97006.28;;;0.83;100.00
61039;BME280;46919;45.816;3.104;2024-01-15T07:32:54;97004.63;;;0.82;100.00
61039;BME280;46919;45.816;3.104;2024-01-15T07:35:20;97011.59;;;0.83;100.00
61039;BME280;46919;45.816;3.104;2024-01-15T07:37:46;97012.59;;;0.82;100.00
61039;BME280;46919;45.816;3.104;2024-01-15T07:40:11;97011.59;;;0.83;100.00
61039;BME280;46919;45.816;3.104;2024-01-15T07:42:37;97017.56;;;0.85;100.00
61039;BME280;46919;45.816;3.104;2024-01-15T07:45:04;97026.81;;;0.89;100.00
61039;BME280;46919;45.816;3.104;2024-01-15T07:47:29;97023.78;;;0.93;100.00
61039;BME280;46919;45.816;3.104;2024-01-15T07:49:55;97027.28;;;0.93;100.00
61039;BME280;46919;45.816;3.104;2024-01-15T07:52:21;97033.44;;;0.94;100.00
61039;BME280;46919;45.816;3.104;2024-01-15T07:54:47;97038.09;;;0.92;100.00
61039;BME280;46919;45.816;3.104;2024-01-15T07:57:13;97040.38;;;0.95;100.00
61039;BME280;46919;45.816;3.104;2024-01-15T07:59:38;97039.75;;;0.93;100.00
61039;BME280;46919;45.816;3.104;2024-01-15T08:02:05;97028.47;;;0.90;100.00
61039;BME280;46919;45.816;3.104;2024-01-15T08:04:31;97025.81;;;0.90;100.00
61039;BME280;46919;45.816;3.104;2024-01-15T08:06:56;97031.31;;;0.89;100.00
61039;BME280;46919;45.816;3.104;2024-01-15T08:09:22;97037.72;;;0.95;100.00
61039;BME280;46919;45.816;3.104;2024-01-15T08:11:47;97028.75;;;0.96;100.00
61039;BME280;46919;45.816;3.104;2024-01-15T08:14:14;97021.75;;;0.95;100.00
61039;BME280;46919;45.816;3.104;2024-01-15T08:16:39;97022.78;;;0.94;100.00
61039;BME280;46919;45.816;3.104;2024-01-15T08:19:05;97034.06;;;0.96;100.00
61039;BME280;46919;45.816;3.104;2024-01-15T08:21:31;97036.09;;;0.94;100.00
61039;BME280;46919;45.816;3.104;2024-01-15T08:24:00;97047.91;;;0.91;100.00
61039;BME280;46919;45.816;3.104;2024-01-15T08:26:27;97050.59;;;0.91;100.00
61039;BME280;46919;45.816;3.104;2024-01-15T08:28:53;97043.88;;;0.95;100.00
61039;BME280;46919;45.816;3.104;2024-01-15T08:31:18;97052.69;;;0.96;100.00
61039;BME280;46919;45.816;3.104;2024-01-15T08:33:44;97051.03;;;0.95;100.00
61039;BME280;46919;45.816;3.104;2024-01-15T08:36:10;97041.97;;;0.89;100.00
61039;BME280;46919;45.816;3.104;2024-01-15T08:38:35;97047.09;;;0.90;100.00
61039;BME280;46919;45.816;3.104;2024-01-15T08:41:01;97043.22;;;0.93;100.00
61039;BME280;46919;45.816;3.104;2024-01-15T08:43:26;97047.75;;;0.93;100.00
61039;BME280;46919;45.816;3.104;2024-01-15T08:45:52;97049.09;;;0.88;100.00
61039;BME280;46919;45.816;3.104;2024-01-15T08:48:18;97051.75;;;0.88;100.00
61039;BME280;46919;45.816;3.104;2024-01-15T08:50:43;97046.25;;;0.90;100.00
61039;BME280;46919;45.816;3.104;2024-01-15T08:53:12;97044.44;;;0.90;100.00
61039;BME280;46919;45.816;3.104;2024-01-15T08:55:38;97051.13;;;0.86;100.00
61039;BME280;46919;45.816;3.104;2024-01-15T08:58:03;97040.50;;;0.86;100.00
61039;BME280;46919;45.816;3.104;2024-01-15T09:00:29;97040.31;;;0.88;100.00
61039;BME280;46919;45.816;3.104;2024-01-15T09:02:55;97051.22;;;0.78;100.00
61039;BME280;46919;45.816;3.104;2024-01-15T09:05:22;97071.22;;;0.74;100.00
61039;BME280;46919;45.816;3.104;2024-01-15T09:07:47;97070.94;;;0.69;100.00
61039;BME280;46919;45.816;3.104;2024-01-15T09:10:13;97070.66;;;0.64;100.00
61039;BME280;46919;45.816;3.104;2024-01-15T09:12:39;97074.50;;;0.61;100.00
61039;BME280;46919;45.816;3.104;2024-01-15T09:15:05;97079.28;;;0.66;100.00
61039;BME280;46919;45.816;3.104;2024-01-15T09:17:31;97089.91;;;0.66;100.00
61039;BME280;46919;45.816;3.104;2024-01-15T09:19:57;97093.88;;;0.70;100.00
61039;BME280;46919;45.816;3.104;2024-01-15T09:22:22;97089.91;;;0.66;100.00
61039;BME280;46919;45.816;3.104;2024-01-15T09:24:48;97084.88;;;0.56;100.00
61039;BME280;46919;45.816;3.104;2024-01-15T09:27:13;97089.38;;;0.56;100.00
61039;BME280;46919;45.816;3.104;2024-01-15T09:29:39;97103.28;;;0.58;100.00
61039;BME280;46919;45.816;3.104;2024-01-15T09:32:07;97108.34;;;0.67;100.00
61039;BME280;46919;45.816;3.104;2024-01-15T09:34:33;97108.00;;;0.70;100.00
61039;BME280;46919;45.816;3.104;2024-01-15T09:36:59;97115.69;;;0.65;100.00
61039;BME280;46919;45.816;3.104;2024-01-15T09:39:25;97119.81;;;0.68;100.00
61039;BME280;46919;45.816;3.104;2024-01-15T09:41:51;97111.66;;;0.69;100.00
61039;BME280;46919;45.816;3.104;2024-01-15T09:44:17;97105.06;;;0.65;100.00
61039;BME280;46919;45.816;3.104;2024-01-15T09:46:43;97103.22;;;0.66;100.00
61039;BME280;46919;45.816;3.104;2024-01-15T09:49:10;97110.84;;;0.69;100.00
61039;BME280;46919;45.816;3.104;2024-01-15T09:51:35;97106.41;;;0.76;100.00
61039;BME280;46919;45.816;3.104;2024-01-15T09:54:02;97107.63;;;0.88;100.00
61039;BME280;46919;45.816;3.104;2024-01-15T09:56:27;97113.97;;;0.87;100.00
61039;BME280;46919;45.816;3.104;2024-01-15T09:58:53;97117.09;;;0.91;100.00
61039;BME280;46919;45.816;3.104;2024-01-15T10:01:20;97109.94;;;0.92;100.00
61039;BME280;46919;45.816;3.104;2024-01-15T10:03:46;97107.53;;;0.97;100.00
61039;BME280;46919;45.816;3.104;2024-01-15T10:06:15;97114.53;;;0.98;100.00
61039;BME280;46919;45.816;3.104;2024-01-15T10:08:43;97118.63;;;0.85;100.00
61039;BME280;46919;45.816;3.104;2024-01-15T10:11:12;97124.50;;;0.81;100.00
61039;BME280;46919;45.816;3.104;2024-01-15T10:13:39;97126.88;;;0.76;100.00
61039;BME280;46919;45.816;3.104;2024-01-15T10:16:05;97124.81;;;0.86;100.00
61039;BME280;46919;45.816;3.104;2024-01-15T10:18:31;97132.16;;;0.99;100.00
61039;BME280;46919;45.816;3.104;2024-01-15T10:20:56;97127.38;;;1.09;100.00
61039;BME280;46919;45.816;3.104;2024-01-15T10:23:25;97125.81;;;1.15;100.00
61039;BME280;46919;45.816;3.104;2024-01-15T10:25:50;97112.69;;;1.13;100.00
61039;BME280;46919;45.816;3.104;2024-01-15T10:28:19;97113.31;;;1.15;100.00
61039;BME280;46919;45.816;3.104;2024-01-15T10:30:45;97110.41;;;1.10;100.00
61039;BME280;46919;45.816;3.104;2024-01-15T10:33:10;97114.25;;;1.07;100.00
61039;BME280;46919;45.816;3.104;2024-01-15T10:35:37;97108.56;;;1.11;100.00
61039;BME280;46919;45.816;3.104;2024-01-15T10:38:03;97111.41;;;1.09;100.00
61039;BME280;46919;45.816;3.104;2024-01-15T10:40:31;97106.28;;;1.22;100.00
61039;BME280;46919;45.816;3.104;2024-01-15T10:42:57;97107.34;;;1.28;100.00
61039;BME280;46919;45.816;3.104;2024-01-15T10:45:23;97111.38;;;1.39;100.00
61039;BME280;46919;45.816;3.104;2024-01-15T10:47:48;97105.88;;;1.40;100.00
61039;BME280;46919;45.816;3.104;2024-01-15T10:50:14;97100.44;;;1.49;100.00
61039;BME280;46919;45.816;3.104;2024-01-15T10:52:40;97101.53;;;1.54;100.00
61039;BME280;46919;45.816;3.104;2024-01-15T10:55:09;97092.69;;;1.54;100.00
61039;BME280;46919;45.816;3.104;2024-01-15T10:57:38;97094.28;;;1.48;100.00
61039;BME280;46919;45.816;3.104;2024-01-15T11:00:04;97087.31;;;1.47;100.00
61039;BME280;46919;45.816;3.104;2024-01-15T11:02:35;97087.84;;;1.57;100.00
61039;BME280;46919;45.816;3.104;2024-01-15T11:05:01;97091.31;;;1.58;100.00
61039;BME280;46919;45.816;3.104;2024-01-15T11:07:27;97091.88;;;1.53;100.00
61039;BME280;46919;45.816;3.104;2024-01-15T11:09:53;97087.00;;;1.57;100.00
61039;BME280;46919;45.816;3.104;2024-01-15T11:12:18;97087.84;;;1.57;100.00
61039;BME280;46919;45.816;3.104;2024-01-15T11:14:48;97087.47;;;1.60;100.00
61039;BME280;46919;45.816;3.104;2024-01-15T11:17:15;97069.66;;;1.61;100.00
61039;BME280;46919;45.816;3.104;2024-01-15T11:22:34;97067.78;;;1.76;100.00
61039;BME280;46919;45.816;3.104;2024-01-15T11:25:03;97081.47;;;1.73;100.00
61039;BME280;46919;45.816;3.104;2024-01-15T11:27:52;97092.75;;;1.75;100.00
61039;BME280;46919;45.816;3.104;2024-01-15T11:30:18;97099.50;;;1.56;100.00
61039;BME280;46919;45.816;3.104;2024-01-15T11:32:47;97096.41;;;1.53;100.00
61039;BME280;46919;45.816;3.104;2024-01-15T11:35:13;97092.44;;;1.49;100.00
61039;BME280;46919;45.816;3.104;2024-01-15T11:40:36;97080.50;;;1.59;100.00
61039;BME280;46919;45.816;3.104;2024-01-15T11:43:07;97063.00;;;1.72;100.00
61039;BME280;46919;45.816;3.104;2024-01-15T11:45:34;97063.75;;;1.66;100.00
61039;BME280;46919;45.816;3.104;2024-01-15T11:48:14;97063.31;;;1.84;100.00
61039;BME280;46919;45.816;3.104;2024-01-15T11:53:36;97074.53;;;1.79;100.00
61039;BME280;46919;45.816;3.104;2024-01-15T11:56:14;97080.00;;;1.71;100.00
61039;BME280;46919;45.816;3.104;2024-01-15T11:58:41;97093.31;;;1.71;100.00
61039;BME280;46919;45.816;3.104;2024-01-15T12:01:06;97100.31;;;1.72;100.00
61039;BME280;46919;45.816;3.104;2024-01-15T12:03:32;97092.25;;;1.65;100.00
61039;BME280;46919;45.816;3.104;2024-01-15T12:05:59;97096.09;;;1.62;100.00
61039;BME280;46919;45.816;3.104;2024-01-15T12:08:25;97093.63;;;1.61;100.00
61039;BME280;46919;45.816;3.104;2024-01-15T12:10:52;97086.91;;;1.65;100.00
61039;BME280;46919;45.816;3.104;2024-01-15T12:13:18;97092.81;;;1.60;100.00
61039;BME280;46919;45.816;3.104;2024-01-15T12:15:46;97080.13;;;1.62;100.00
61039;BME280;46919;45.816;3.104;2024-01-15T12:18:13;97077.44;;;1.62;100.00
61039;BME280;46919;45.816;3.104;2024-01-15T12:20:40;97062.47;;;1.61;100.00
61039;BME280;46919;45.816;3.104;2024-01-15T12:23:06;97069.22;;;1.57;100.00
61039;BME280;46919;45.816;3.104;2024-01-15T12:25:32;97063.22;;;1.55;100.00
61039;BME280;46919;45.816;3.104;2024-01-15T12:27:59;97060.09;;;1.67;100.00
61039;BME280;46919;45.816;3.104;2024-01-15T12:30:29;97058.94;;;1.76;100.00
61039;BME280;46919;45.816;3.104;2024-01-15T12:32:58;97058.69;;;1.71;100.00
61039;BME280;46919;45.816;3.104;2024-01-15T12:35:26;97055.59;;;1.67;100.00
61039;BME280;46919;45.816;3.104;2024-01-15T12:37:51;97069.78;;;1.74;100.00
61039;BME280;46919;45.816;3.104;2024-01-15T12:40:21;97078.56;;;1.68;100.00
61039;BME280;46919;45.816;3.104;2024-01-15T12:42:47;97074.84;;;1.69;100.00
61039;BME280;46919;45.816;3.104;2024-01-15T12:45:12;97083.41;;;1.65;100.00
61039;BME280;46919;45.816;3.104;2024-01-15T12:47:39;97090.69;;;1.56;100.00
61039;BME280;46919;45.816;3.104;2024-01-15T12:50:09;97086.56;;;1.53;100.00
61039;BME280;46919;45.816;3.104;2024-01-15T12:52:36;97085.00;;;1.59;100.00
61039;BME280;46919;45.816;3.104;2024-01-15T12:55:04;97082.53;;;1.57;100.00
61039;BME280;46919;45.816;3.104;2024-01-15T12:57:30;97078.47;;;1.61;100.00
61039;BME280;46919;45.816;3.104;2024-01-15T12:59:56;97078.47;;;1.61;100.00
61039;BME280;46919;45.816;3.104;2024-01-15T13:02:21;97063.31;;;1.62;100.00